createdAt,value
2024-05-09T00:03:35.455Z,15.697986577181208
2024-05-09T00:09:49.563Z,14.389261744966444
2024-05-09T00:13:09.868Z,14.812080536912752
2024-05-09T00:16:30.233Z,14.14765100671141
2024-05-09T00:19:50.279Z,15.093959731543624
2024-05-09T00:23:09.935Z,17.71812080536913
2024-05-09T00:30:27.964Z,15.006711409395972
2024-05-09T00:33:53.109Z,14.697986577181208
2024-05-09T00:38:36.503Z,15.577181208053691
2024-05-09T00:41:56.899Z,15.778523489932885
2024-05-09T00:45:16.956Z,16.20805369127517
2024-05-09T00:50:19.036Z,15.986577181208053
2024-05-09T00:53:43.182Z,15.979865771812081
2024-05-09T00:57:03.118Z,16.503355704697988
2024-05-09T01:00:31.495Z,16.0
2024-05-09T01:03:58.578Z,18.026845637583893
2024-05-09T01:08:19.233Z,18.798657718120804
2024-05-09T01:11:44.494Z,18.55704697986577
2024-05-09T01:15:04.834Z,17.201342281879196
2024-05-09T01:18:24.823Z,18.013422818791945
2024-05-09T01:25:03.508Z,17.644295302013422
2024-05-09T01:38:53.986Z,19.91946308724832
2024-05-09T01:42:14.164Z,19.778523489932887
2024-05-09T01:45:34.469Z,20.590604026845636
2024-05-09T01:48:54.316Z,20.268456375838927
2024-05-09T01:52:14.434Z,21.483221476510067
2024-05-09T01:55:44.570Z,22.456375838926174
2024-05-09T01:59:04.448Z,24.28187919463087
2024-05-09T02:02:24.739Z,23.469798657718123
2024-05-09T02:05:52.657Z,26.006711409395972
2024-05-09T02:16:25.760Z,29.28187919463087
2024-05-09T02:19:46.012Z,28.630872483221477
2024-05-09T02:23:27.089Z,28.959731543624162
2024-05-09T02:26:48.618Z,27.83221476510067
2024-05-09T02:38:35.701Z,28.308724832214764
2024-05-09T02:50:34.179Z,28.76510067114094
2024-05-09T02:56:57.726Z,29.630872483221477
2024-05-09T03:01:51.182Z,27.80536912751678
2024-05-09T03:05:11.653Z,28.006711409395972
2024-05-09T03:08:31.799Z,28.241610738255034
2024-05-09T03:11:52.946Z,27.322147651006713
2024-05-09T03:15:13.586Z,29.40268456375839
2024-05-09T03:18:35.842Z,31.825503355704697
2024-05-09T03:21:55.719Z,30.959731543624162
2024-05-09T03:25:15.684Z,30.22818791946309
2024-05-09T03:28:35.770Z,32.24832214765101
2024-05-09T03:31:55.607Z,33.2751677852349
2024-05-09T03:36:32.658Z,32.0
2024-05-09T03:39:55.450Z,33.48993288590604
2024-05-09T03:43:16.039Z,32.624161073825505
2024-05-09T03:46:43.986Z,33.66442953020134
2024-05-09T03:50:40.763Z,35.53691275167785
2024-05-09T03:56:25.691Z,33.77181208053691
2024-05-09T03:59:45.750Z,35.15436241610738
2024-05-09T04:03:07.473Z,34.68456375838926
2024-05-09T04:06:33.914Z,34.49664429530201
2024-05-09T04:09:54.923Z,34.355704697986575
2024-05-09T04:13:15.952Z,35.22147651006711
2024-05-09T04:16:37.009Z,35.22147651006711
2024-05-09T04:19:57.202Z,34.56375838926174
2024-05-09T04:26:23.222Z,36.45637583892618
2024-05-09T04:29:44.440Z,35.75167785234899
2024-05-09T04:33:05.655Z,37.79865771812081
2024-05-09T04:36:26.237Z,36.90604026845637
2024-05-09T04:39:47.562Z,36.395973154362416
2024-05-09T04:43:11.606Z,34.48322147651007
2024-05-09T04:46:31.235Z,33.68456375838926
2024-05-09T04:50:39.299Z,33.966442953020135
2024-05-09T04:54:01.216Z,32.76510067114094
2024-05-09T04:58:40.895Z,31.77181208053691
2024-05-09T05:02:01.876Z,30.664429530201343
2024-05-09T05:08:34.111Z,30.76510067114094
2024-05-09T05:11:55.215Z,29.664429530201343
2024-05-09T05:15:15.808Z,31.16778523489933
2024-05-09T05:18:36.136Z,31.187919463087248
2024-05-09T05:24:14.513Z,32.261744966442954
2024-05-09T05:27:34.656Z,32.11409395973154
2024-05-09T05:32:56.544Z,32.557046979865774
2024-05-09T05:36:17.514Z,31.42281879194631
2024-05-09T05:39:39.097Z,30.798657718120804
2024-05-09T05:42:59.415Z,31.986577181208055
2024-05-09T05:46:19.987Z,32.718120805369125
2024-05-09T05:58:12.994Z,38.61073825503356
2024-05-09T06:10:09.256Z,39.15436241610738
2024-05-09T06:13:36.688Z,38.66442953020134
2024-05-09T06:16:58.430Z,38.67785234899329
2024-05-09T06:20:24.063Z,37.214765100671144
2024-05-09T06:23:53.390Z,35.61073825503356
2024-05-09T06:27:14.096Z,31.59731543624161
2024-05-09T06:30:39.505Z,31.114093959731544
2024-05-09T06:34:02.400Z,32.261744966442954
2024-05-09T06:37:23.415Z,30.25503355704698
2024-05-09T06:40:45.028Z,32.81208053691275
2024-05-09T06:46:06.055Z,31.812080536912752
2024-05-09T06:49:26.905Z,32.47651006711409
2024-05-09T06:52:49.271Z,39.38255033557047
2024-05-09T06:56:09.413Z,36.80536912751678
2024-05-09T06:59:30.251Z,38.56375838926174
2024-05-09T07:04:28.310Z,35.24832214765101
2024-05-09T07:11:00.077Z,35.651006711409394
2024-05-09T07:14:22.107Z,37.57046979865772
2024-05-09T07:17:42.726Z,38.92617449664429
2024-05-09T07:21:03.639Z,38.30201342281879
2024-05-09T07:27:09.019Z,37.80536912751678
2024-05-09T07:32:48.325Z,35.7248322147651
2024-05-09T07:36:10.261Z,34.61744966442953
2024-05-09T07:41:17.231Z,32.48993288590604
2024-05-09T07:44:48.594Z,34.83221476510067
2024-05-09T07:53:08.886Z,31.798657718120804
2024-05-09T07:56:58.101Z,30.630872483221477
2024-05-09T08:00:23.717Z,31.221476510067113
2024-05-09T08:06:49.387Z,34.11409395973154
2024-05-09T08:10:12.891Z,35.080536912751676
2024-05-09T08:13:35.493Z,34.30201342281879
2024-05-09T08:19:03.998Z,37.43624161073826
2024-05-09T08:24:48.949Z,34.59060402684564
2024-05-09T08:28:42.015Z,32.25503355704698
2024-05-09T08:32:02.773Z,31.926174496644297
2024-05-09T08:38:49.286Z,33.12080536912752
2024-05-09T08:46:25.886Z,37.604026845637584
2024-05-09T08:53:15.589Z,39.671140939597315
2024-05-09T08:56:36.695Z,33.66442953020134
2024-05-09T08:59:59.132Z,35.70469798657718
2024-05-09T09:05:08.744Z,33.308724832214764
2024-05-09T09:08:30.035Z,36.69798657718121
2024-05-09T09:11:50.401Z,34.49664429530201
2024-05-09T09:15:10.447Z,33.013422818791945
2024-05-09T09:18:31.181Z,30.302013422818792
2024-05-09T09:27:14.739Z,29.395973154362416
2024-05-09T09:39:21.609Z,27.953020134228186
2024-05-09T09:42:42.323Z,23.664429530201343
2024-05-09T09:48:58.449Z,22.22818791946309
2024-05-09T09:56:21.155Z,23.604026845637584
2024-05-09T09:59:42.165Z,23.13422818791946
2024-05-09T10:03:02.559Z,25.221476510067113
2024-05-09T10:06:23.186Z,26.073825503355703
2024-05-09T10:09:44.175Z,27.684563758389263
2024-05-09T10:13:04.420Z,27.624161073825505
2024-05-09T10:16:24.158Z,27.006711409395972
2024-05-09T10:23:57.015Z,24.63758389261745
2024-05-09T10:27:17.392Z,23.42281879194631
2024-05-09T10:30:39.415Z,23.906040268456376
2024-05-09T10:34:01.152Z,23.42281879194631
2024-05-09T10:37:22.233Z,21.630872483221477
2024-05-09T10:40:42.717Z,21.496644295302012
2024-05-09T10:44:02.627Z,20.57046979865772
2024-05-09T10:47:22.516Z,16.798657718120804
2024-05-09T10:50:42.349Z,19.389261744966444
2024-05-09T10:54:02.315Z,18.953020134228186
2024-05-09T10:57:22.807Z,20.7248322147651
2024-05-09T11:02:23.730Z,20.65771812080537
2024-05-09T11:05:45.280Z,20.100671140939596
2024-05-09T11:09:05.595Z,21.697986577181208
2024-05-09T11:12:26.395Z,21.161073825503355
2024-05-09T11:15:47.732Z,21.16778523489933
2024-05-09T11:19:09.021Z,21.812080536912752
2024-05-09T11:24:47.469Z,21.120805369127517
2024-05-09T11:28:08.030Z,22.630872483221477
2024-05-09T11:31:29.036Z,21.328859060402685
2024-05-09T11:39:16.624Z,23.57046979865772
2024-05-09T11:42:37.752Z,22.053691275167786
2024-05-09T11:48:00.965Z,22.778523489932887
2024-05-09T11:51:21.165Z,20.671140939597315
2024-05-09T11:54:41.268Z,21.161073825503355
2024-05-09T11:58:01.242Z,20.42281879194631
2024-05-09T12:01:25.067Z,22.348993288590606
2024-05-09T12:04:47.166Z,22.590604026845636
2024-05-09T12:08:07.577Z,21.308724832214764
2024-05-09T12:11:27.572Z,22.06040268456376
2024-05-09T12:14:48.067Z,20.885906040268456
2024-05-09T12:23:15.956Z,21.328859060402685
2024-05-09T12:26:37.599Z,20.241610738255034
2024-05-09T12:29:57.734Z,18.34228187919463
2024-05-09T12:33:18.276Z,17.7248322147651
2024-05-09T12:36:39.566Z,17.778523489932887
2024-05-09T12:40:00.647Z,17.449664429530202
2024-05-09T12:45:16.535Z,16.91946308724832
2024-05-09T12:48:37.192Z,13.791946308724832
2024-05-09T12:56:14.642Z,15.604026845637584
2024-05-09T12:59:35.902Z,15.302013422818792
2024-05-09T13:02:57.337Z,14.899328859060402
2024-05-09T13:06:17.382Z,15.644295302013424
2024-05-09T13:09:38.990Z,17.389261744966444
2024-05-09T13:13:02.052Z,15.134228187919463
2024-05-09T13:16:22.683Z,13.375838926174497
2024-05-09T13:19:44.387Z,12.912751677852349
2024-05-09T13:23:05.562Z,13.624161073825503
2024-05-09T13:26:31.960Z,13.778523489932885
2024-05-09T13:31:23.146Z,13.154362416107382
2024-05-09T13:34:47.776Z,15.087248322147651
2024-05-09T13:38:10.405Z,15.114093959731544
2024-05-09T13:45:51.067Z,13.335570469798657
2024-05-09T13:49:12.934Z,11.899328859060402
2024-05-09T13:52:42.134Z,11.644295302013424
2024-05-09T13:56:44.726Z,11.570469798657719
2024-05-09T14:00:37.932Z,12.919463087248323
2024-05-09T14:07:11.054Z,12.845637583892618
2024-05-09T14:10:36.273Z,12.087248322147651
2024-05-09T14:13:58.995Z,13.979865771812081
2024-05-09T14:17:20.366Z,12.590604026845638
2024-05-09T14:23:54.553Z,13.40268456375839
2024-05-09T14:29:59.609Z,14.463087248322148
2024-05-09T14:33:20.747Z,12.503355704697986
2024-05-09T14:36:42.037Z,11.664429530201343
2024-05-09T14:40:02.952Z,11.993288590604028
2024-05-09T14:43:24.648Z,12.771812080536913
2024-05-09T14:46:46.638Z,12.194630872483222
2024-05-09T14:50:06.999Z,13.416107382550335
2024-05-09T14:53:29.252Z,10.738255033557047
2024-05-09T14:56:50.041Z,12.006711409395972
2024-05-09T15:02:46.627Z,12.651006711409396
2024-05-09T15:06:11.357Z,12.832214765100671
2024-05-09T15:17:53.564Z,11.751677852348994
2024-05-09T15:21:14.546Z,12.926174496644295
2024-05-09T15:24:38.897Z,12.946308724832214
2024-05-09T15:28:05.271Z,11.912751677852349
2024-05-09T15:34:43.688Z,10.691275167785236
2024-05-09T15:38:46.580Z,12.557046979865772
2024-05-09T15:43:05.700Z,12.59731543624161
2024-05-09T15:46:27.676Z,10.013422818791947
2024-05-09T15:49:49.775Z,9.946308724832214
2024-05-09T15:54:54.453Z,12.879194630872483
2024-05-09T15:58:16.283Z,12.751677852348994
2024-05-09T16:01:37.855Z,10.805369127516778
2024-05-09T16:08:00.090Z,11.21476510067114
2024-05-09T16:11:21.211Z,11.449664429530202
2024-05-09T16:14:42.303Z,9.449664429530202
2024-05-09T16:18:31.910Z,10.590604026845638
2024-05-09T16:26:55.849Z,10.691275167785236
2024-05-09T16:30:31.463Z,11.114093959731544
2024-05-09T16:34:00.745Z,13.570469798657719
2024-05-09T16:37:21.949Z,13.288590604026846
2024-05-09T16:40:43.431Z,12.429530201342281
2024-05-09T16:46:33.335Z,13.21476510067114
2024-05-09T16:50:05.144Z,12.724832214765101
2024-05-09T16:53:25.843Z,14.550335570469798
2024-05-09T16:56:48.105Z,16.77181208053691
2024-05-09T17:00:18.101Z,17.70469798657718
2024-05-09T17:06:35.491Z,15.503355704697986
2024-05-09T17:10:26.697Z,16.91275167785235
2024-05-09T17:13:53.403Z,15.389261744966444
2024-05-09T17:17:14.218Z,16.74496644295302
2024-05-09T17:20:54.572Z,17.013422818791945
2024-05-09T17:24:15.693Z,15.966442953020135
2024-05-09T17:30:46.460Z,17.456375838926174
2024-05-09T17:34:32.856Z,16.630872483221477
2024-05-09T17:37:55.401Z,16.40268456375839
2024-05-09T17:41:15.779Z,17.449664429530202
2024-05-09T17:44:37.364Z,17.19463087248322
2024-05-09T17:48:47.006Z,17.2751677852349
2024-05-09T17:52:06.898Z,18.7248322147651
2024-05-09T17:55:27.015Z,19.63758389261745
2024-05-09T17:58:47.982Z,21.013422818791945
2024-05-09T18:02:09.499Z,19.83221476510067
2024-05-09T18:11:01.978Z,16.77181208053691
2024-05-09T18:14:23.616Z,16.966442953020135
2024-05-09T18:17:45.095Z,16.14765100671141
2024-05-09T18:21:05.457Z,14.95973154362416
2024-05-09T18:24:26.582Z,14.85234899328859
2024-05-09T18:27:48.563Z,16.268456375838927
2024-05-09T18:31:10.237Z,16.22818791946309
2024-05-09T18:34:31.391Z,17.684563758389263
2024-05-09T18:37:53.775Z,18.57046979865772
2024-05-09T18:41:16.196Z,19.322147651006713
2024-05-09T18:45:59.716Z,23.13422818791946
2024-05-09T18:49:24.342Z,22.08724832214765
2024-05-09T18:52:45.838Z,23.677852348993287
2024-05-09T18:56:57.570Z,25.328859060402685
2024-05-09T19:00:31.014Z,33.30201342281879
2024-05-09T19:03:56.091Z,27.268456375838927
2024-05-09T19:07:25.189Z,23.57718120805369
2024-05-09T19:10:46.795Z,19.308724832214764
2024-05-09T19:14:08.151Z,20.06711409395973
2024-05-09T19:17:29.636Z,19.57046979865772
2024-05-09T19:22:17.097Z,21.953020134228186
2024-05-09T19:25:37.821Z,24.28187919463087
2024-05-09T19:28:57.877Z,22.691275167785236
2024-05-09T19:32:18.942Z,23.885906040268456
2024-05-09T19:37:30.053Z,23.97986577181208
2024-05-09T19:40:51.035Z,25.34228187919463
2024-05-09T19:44:11.498Z,24.697986577181208
2024-05-09T19:47:38.964Z,24.483221476510067
2024-05-09T19:53:34.337Z,29.879194630872483
2024-05-09T19:56:54.655Z,24.906040268456376
2024-05-09T20:00:21.857Z,26.23489932885906
2024-05-09T20:03:47.406Z,25.77181208053691
2024-05-09T20:08:28.591Z,25.389261744966444
2024-05-09T20:11:49.424Z,25.409395973154364
2024-05-09T20:16:30.844Z,26.543624161073826
2024-05-09T20:19:51.458Z,25.7248322147651
2024-05-09T20:23:11.723Z,25.42281879194631
2024-05-09T20:26:31.262Z,24.731543624161073
2024-05-09T20:29:56.584Z,23.644295302013422
2024-05-09T20:33:16.257Z,25.34228187919463
2024-05-09T20:36:36.564Z,25.2751677852349
2024-05-09T20:39:57.311Z,25.57046979865772
2024-05-09T20:43:18.405Z,24.879194630872483
2024-05-09T20:46:48.133Z,23.369127516778523
2024-05-09T20:50:34.961Z,22.691275167785236
2024-05-09T20:54:05.042Z,23.42953020134228
2024-05-09T20:59:08.530Z,24.348993288590606
2024-05-09T21:02:33.006Z,22.83221476510067
2024-05-09T21:09:05.772Z,22.78523489932886
2024-05-09T21:12:35.484Z,22.953020134228186
2024-05-09T21:16:11.314Z,23.44295302013423
2024-05-09T21:22:37.397Z,22.248322147651006
2024-05-09T21:26:13.705Z,22.83221476510067
2024-05-09T21:29:37.751Z,22.926174496644297
2024-05-09T21:32:57.751Z,23.13422818791946
2024-05-09T21:36:17.762Z,22.563758389261746
2024-05-09T21:59:14.076Z,22.604026845637584
2024-05-09T22:02:34.448Z,21.758389261744966
2024-05-09T22:05:54.936Z,22.731543624161073
2024-05-09T22:09:14.587Z,22.798657718120804
2024-05-09T22:12:36.224Z,23.288590604026847
2024-05-09T22:15:56.591Z,22.241610738255034
2024-05-09T22:19:16.638Z,21.798657718120804
2024-05-09T22:22:36.575Z,20.395973154362416
2024-05-09T22:25:56.929Z,20.91275167785235
2024-05-09T22:29:17.220Z,21.523489932885905
2024-05-09T22:34:19.967Z,22.91946308724832
2024-05-09T22:37:41.346Z,23.308724832214764
2024-05-09T22:45:31.515Z,22.221476510067113
2024-05-09T22:48:51.487Z,23.97986577181208
2024-05-09T23:10:16.573Z,25.885906040268456
2024-05-09T23:13:40.999Z,27.993288590604028
2024-05-09T23:17:00.709Z,27.40268456375839
2024-05-09T23:23:42.190Z,28.34228187919463
2024-05-09T23:27:02.148Z,27.91275167785235
2024-05-09T23:30:36.431Z,27.34228187919463
2024-05-09T23:33:59.507Z,27.120805369127517
2024-05-09T23:37:20.064Z,26.38255033557047
2024-05-09T23:44:26.364Z,26.409395973154364
2024-05-09T23:55:28.029Z,27.026845637583893
2024-05-09T23:58:48.890Z,28.335570469798657
